createdAt,value
2022-08-22T00:02:35.071Z,98762.69
2022-08-22T00:02:46.231Z,98857.22
2022-08-22T00:02:57.376Z,98808.09
2022-08-22T00:03:06.743Z,98777.41
2022-08-22T00:03:16.002Z,98789.41
2022-08-22T00:05:10.914Z,98768.66
2022-08-22T00:07:51.996Z,98760.59
2022-08-22T00:10:25.924Z,98767.41
2022-08-22T00:13:34.125Z,98767.09
2022-08-22T00:16:20.749Z,98764.63
2022-08-22T00:19:04.027Z,98757.66
2022-08-22T00:21:53.762Z,98764.47
2022-08-22T00:24:26.968Z,98768.22
2022-08-22T00:27:02.260Z,98762.16
2022-08-22T00:29:35.841Z,98764.91
2022-08-22T00:32:42.722Z,98770.97
2022-08-22T00:35:31.767Z,98765.09
2022-08-22T00:38:06.347Z,98769.91
2022-08-22T00:41:01.967Z,98764.03
2022-08-22T00:43:51.416Z,98770.94
2022-08-22T00:46:37.527Z,98769.91
2022-08-22T00:49:31.365Z,98776.56
2022-08-22T00:52:16.339Z,98771.50
2022-08-22T00:55:08.969Z,98774.59
2022-08-22T00:58:12.696Z,98771.38
2022-08-22T01:00:52.369Z,98772.16
2022-08-22T01:03:44.817Z,98776.56
2022-08-22T01:06:27.411Z,98773.59
2022-08-22T01:09:16.151Z,98767.53
2022-08-22T01:11:46.593Z,98773.59
2022-08-22T01:14:34.548Z,98768.34
2022-08-22T01:17:24.277Z,98767.72
2022-08-22T01:20:07.287Z,98767.13
2022-08-22T01:22:47.226Z,98768.38
2022-08-22T01:25:58.076Z,98765.22
2022-08-22T01:28:45.097Z,98761.63
2022-08-22T01:31:41.674Z,98765.94
2022-08-22T01:34:37.429Z,98768.41
2022-08-22T01:37:17.720Z,98765.03
2022-08-22T01:39:57.259Z,98765.13
2022-08-22T01:42:24.672Z,98760.38
2022-08-22T01:45:13.976Z,98767.03
2022-08-22T01:47:55.686Z,98772.78
2022-08-22T01:50:37.216Z,98768.19
2022-08-22T01:53:25.214Z,98769.88
2022-08-22T01:56:05.496Z,98770.69
2022-08-22T01:58:36.666Z,98766.44
2022-08-22T02:01:33.960Z,98770.31
2022-08-22T02:04:28.180Z,98764.06
2022-08-22T02:07:04.283Z,98759.69
2022-08-22T02:10:00.433Z,98767.63
2022-08-22T02:12:46.722Z,98760.97
2022-08-22T02:15:39.067Z,98753.28
2022-08-22T02:18:06.494Z,98751.97
2022-08-22T02:21:03.506Z,98757.88
2022-08-22T02:23:56.037Z,98755.59
2022-08-22T02:26:47.014Z,98750.22
2022-08-22T02:29:19.392Z,98757.16
2022-08-22T02:31:53.152Z,98747.59
2022-08-22T02:34:29.092Z,98750.03
2022-08-22T02:37:10.078Z,98746.22
2022-08-22T02:40:02.822Z,98746.72
2022-08-22T02:42:41.133Z,98745.16
2022-08-22T02:45:20.731Z,98748.44
2022-08-22T02:48:02.053Z,98738.72
2022-08-22T02:50:37.826Z,98733.28
2022-08-22T02:53:14.772Z,98745.06
2022-08-22T02:55:54.469Z,98745.84
2022-08-22T02:58:43.196Z,98742.19
2022-08-22T03:01:35.234Z,98736.63
2022-08-22T03:04:24.803Z,98741.75
2022-08-22T03:06:58.188Z,98735.94
2022-08-22T03:09:30.807Z,98739.81
2022-08-22T03:12:10.395Z,98736.28
2022-08-22T03:14:45.831Z,98739.41
2022-08-22T03:17:19.808Z,98747.59
2022-08-22T03:20:06.032Z,98745.41
2022-08-22T03:22:54.610Z,98746.38
2022-08-22T03:25:31.063Z,98750.44
2022-08-22T03:28:12.167Z,98745.06
2022-08-22T03:31:01.407Z,98754.03
2022-08-22T03:33:31.092Z,98755.41
2022-08-22T03:36:13.997Z,98754.34
2022-08-22T03:38:52.745Z,98764.59
2022-08-22T03:41:29.430Z,98764.41
2022-08-22T03:44:39.145Z,98763.00
2022-08-22T03:47:28.923Z,98759.78
2022-08-22T03:50:22.252Z,98759.69
2022-08-22T03:53:15.452Z,98757.19
2022-08-22T03:56:08.785Z,98763.25
2022-08-22T03:58:39.625Z,98759.41
2022-08-22T04:01:31.569Z,98760.28
2022-08-22T04:04:15.997Z,98772.41
2022-08-22T04:06:48.320Z,98765.72
2022-08-22T04:10:00.532Z,98766.72
2022-08-22T04:12:53.512Z,98773.78
2022-08-22T04:15:27.256Z,98778.66
2022-08-22T04:18:24.521Z,98776.06
2022-08-22T04:21:06.160Z,98769.28
2022-08-22T04:23:49.919Z,98769.53
2022-08-22T04:26:22.886Z,98772.25
2022-08-22T04:28:54.040Z,98776.00
2022-08-22T04:31:27.849Z,98783.97
2022-08-22T04:34:07.167Z,98783.06
2022-08-22T04:36:43.916Z,98773.81
2022-08-22T04:39:30.157Z,98779.94
2022-08-22T04:42:36.685Z,98779.81
2022-08-22T04:45:17.109Z,98781.13
2022-08-22T04:48:15.901Z,98783.22
2022-08-22T04:50:57.836Z,98790.97
2022-08-22T04:53:56.256Z,98800.69
2022-08-22T04:56:43.338Z,98793.53
2022-08-22T04:59:16.461Z,98791.75
2022-08-22T05:02:06.396Z,98796.50
2022-08-22T05:04:50.831Z,98798.00
2022-08-22T05:07:22.998Z,98792.28
2022-08-22T05:09:54.417Z,98791.81
2022-08-22T05:12:34.454Z,98791.75
2022-08-22T05:15:23.166Z,98801.41
2022-08-22T05:17:53.808Z,98798.25
2022-08-22T05:20:24.572Z,98803.84
2022-08-22T05:22:57.553Z,98797.75
2022-08-22T05:25:31.091Z,98799.94
2022-08-22T05:28:12.411Z,98801.84
2022-08-22T05:30:41.042Z,98807.72
2022-08-22T05:33:20.460Z,98807.13
2022-08-22T05:35:57.925Z,98809.03
2022-08-22T05:38:31.461Z,98813.69
2022-08-22T05:41:10.637Z,98817.22
2022-08-22T05:43:41.841Z,98818.06
2022-08-22T05:46:36.700Z,98823.25
2022-08-22T05:49:06.153Z,98817.09
2022-08-22T05:51:48.297Z,98819.91
2022-08-22T05:54:20.299Z,98821.19
2022-08-22T05:56:54.146Z,98827.78
2022-08-22T05:59:30.284Z,98829.56
2022-08-22T06:02:07.968Z,98838.22
2022-08-22T06:04:46.529Z,98840.44
2022-08-22T06:07:21.995Z,98847.75
2022-08-22T06:10:19.992Z,98838.53
2022-08-22T06:13:04.579Z,98835.22
2022-08-22T06:15:48.174Z,98842.31
2022-08-22T06:18:24.202Z,98839.59
2022-08-22T06:21:02.016Z,98841.19
2022-08-22T06:24:05.257Z,98835.16
2022-08-22T06:26:38.157Z,98841.28
2022-08-22T06:29:07.414Z,98845.69
2022-08-22T06:31:45.247Z,98843.56
2022-08-22T06:34:15.941Z,98847.97
2022-08-22T06:36:47.725Z,98848.78
2022-08-22T06:39:32.242Z,98845.75
2022-08-22T06:42:14.517Z,98850.44
2022-08-22T06:45:11.574Z,98852.19
2022-08-22T06:47:43.480Z,98848.78
2022-08-22T06:50:36.224Z,98860.66
2022-08-22T06:53:09.863Z,98866.63
2022-08-22T06:55:39.594Z,98854.94
2022-08-22T06:58:17.710Z,98859.34
2022-08-22T07:01:05.679Z,98858.13
2022-08-22T07:03:41.268Z,98862.81
2022-08-22T07:06:14.223Z,98851.81
2022-08-22T07:08:42.330Z,98846.66
2022-08-22T07:11:21.817Z,98846.94
2022-08-22T07:14:17.051Z,98851.38
2022-08-22T07:17:00.801Z,98846.62
2022-08-22T07:19:30.446Z,98858.41
2022-08-22T07:21:59.635Z,98858.75
2022-08-22T07:24:31.929Z,98860.94
2022-08-22T07:27:23.961Z,98854.75
2022-08-22T07:30:13.945Z,98864.38
2022-08-22T07:32:50.739Z,98859.28
2022-08-22T07:35:26.748Z,98867.63
2022-08-22T07:38:07.915Z,98860.03
2022-08-22T07:40:59.740Z,98862.16
2022-08-22T07:43:35.446Z,98856.50
2022-08-22T07:46:24.729Z,98861.19
2022-08-22T07:49:09.165Z,98868.53
2022-08-22T07:51:49.770Z,98869.84
2022-08-22T07:54:27.193Z,98880.41
2022-08-22T07:57:03.680Z,98876.69
2022-08-22T07:59:34.457Z,98875.69
2022-08-22T08:02:06.186Z,98875.06
2022-08-22T08:04:39.994Z,98873.84
2022-08-22T08:07:10.746Z,98875.38
2022-08-22T08:09:44.674Z,98870.81
2022-08-22T08:12:12.976Z,98873.84
2022-08-22T08:14:42.590Z,98876.53
2022-08-22T08:17:17.575Z,98873.09
2022-08-22T08:19:47.304Z,98883.88
2022-08-22T08:22:21.306Z,98879.03
2022-08-22T08:24:50.177Z,98882.06
2022-08-22T08:27:40.211Z,98884.59
2022-08-22T08:30:15.467Z,98873.69
2022-08-22T08:32:47.786Z,98873.78
2022-08-22T08:35:31.669Z,98865.97
2022-08-22T08:38:16.778Z,98881.06
2022-08-22T08:41:10.917Z,98876.53
2022-08-22T08:43:40.914Z,98876.62
2022-08-22T08:46:55.784Z,98874.91
2022-08-22T08:49:33.655Z,98881.69
2022-08-22T08:52:25.773Z,98874.84
2022-08-22T08:55:22.550Z,98875.44
2022-08-22T08:58:24.124Z,98872.41
2022-08-22T09:01:00.278Z,98882.00
2022-08-22T09:04:15.184Z,98884.84
2022-08-22T09:07:10.788Z,98883.81
2022-08-22T09:09:52.273Z,98888.03
2022-08-22T09:12:36.977Z,98884.28
2022-08-22T09:15:44.875Z,98879.16
2022-08-22T09:18:33.839Z,98884.97
2022-08-22T09:21:43.709Z,98889.75
2022-08-22T09:24:37.414Z,98880.72
2022-08-22T09:27:24.405Z,98889.28
2022-08-22T09:30:04.705Z,98883.56
2022-08-22T09:33:09.999Z,98893.00
2022-08-22T09:36:16.179Z,98885.06
2022-08-22T09:38:55.976Z,98883.97
2022-08-22T09:41:37.824Z,98882.50
2022-08-22T09:44:16.338Z,98885.12
2022-08-22T09:47:24.496Z,98888.91
2022-08-22T09:50:14.748Z,98879.16
2022-08-22T09:53:10.203Z,98879.75
2022-08-22T09:55:54.860Z,98886.22
2022-08-22T09:58:46.368Z,98886.50
2022-08-22T10:01:35.791Z,98892.19
2022-08-22T10:04:42.477Z,98885.88
2022-08-22T10:07:33.551Z,98889.28
2022-08-22T10:10:26.550Z,98880.72
2022-08-22T10:13:01.277Z,98884.66
2022-08-22T10:15:51.110Z,98888.47
2022-08-22T10:18:43.984Z,98892.19
2022-08-22T10:22:02.503Z,98890.88
2022-08-22T10:24:51.963Z,98890.53
2022-08-22T10:27:32.623Z,98894.31
2022-08-22T10:30:06.353Z,98882.91
2022-08-22T10:32:47.136Z,98880.87
2022-08-22T10:35:25.720Z,98889.59
2022-08-22T10:38:21.409Z,98894.97
2022-08-22T10:41:09.947Z,98894.25
2022-08-22T10:44:00.610Z,98890.19
2022-08-22T10:46:49.258Z,98892.19
2022-08-22T10:49:28.220Z,98896.28
2022-08-22T10:52:06.513Z,98888.50
2022-08-22T10:55:01.743Z,98893.66
2022-08-22T10:58:04.735Z,98890.06
2022-08-22T11:00:50.193Z,98890.38
2022-08-22T11:03:23.483Z,98888.37
2022-08-22T11:06:07.029Z,98883.56
2022-08-22T11:08:59.603Z,98881.59
2022-08-22T11:11:47.808Z,98878.03
2022-08-22T11:14:38.022Z,98883.44
2022-08-22T11:17:30.907Z,98884.34
2022-08-22T11:20:06.881Z,98881.50
2022-08-22T11:22:55.527Z,98881.59
2022-08-22T11:25:41.538Z,98883.16
2022-08-22T11:28:29.554Z,98883.66
2022-08-22T11:31:07.555Z,98877.91
2022-08-22T11:33:53.138Z,98875.16
2022-08-22T11:36:20.502Z,98880.91
2022-08-22T11:39:03.364Z,98875.16
2022-08-22T11:41:52.245Z,98877.75
2022-08-22T11:44:25.490Z,98883.06
2022-08-22T11:46:53.344Z,98878.25
2022-08-22T11:49:27.342Z,98876.66
2022-08-22T11:51:55.499Z,98868.03
2022-08-22T11:54:31.155Z,98870.06
2022-08-22T11:57:08.937Z,98868.34
2022-08-22T11:59:43.231Z,98873.31
2022-08-22T12:02:14.142Z,98877.47
2022-08-22T12:04:44.011Z,98874.50
2022-08-22T12:07:18.592Z,98855.88
2022-08-22T12:09:50.745Z,98861.75
2022-08-22T12:12:18.909Z,98868.19
2022-08-22T12:15:04.541Z,98866.84
2022-08-22T12:17:55.503Z,98861.62
2022-08-22T12:20:32.977Z,98864.28
2022-08-22T12:23:19.032Z,98864.03
2022-08-22T12:26:05.971Z,98858.13
2022-08-22T12:28:56.880Z,98860.94
2022-08-22T12:31:24.402Z,98863.22
2022-08-22T12:34:18.204Z,98861.00
2022-08-22T12:36:57.902Z,98867.34
2022-08-22T12:39:41.233Z,98858.94
2022-08-22T12:42:14.684Z,98855.09
2022-08-22T12:44:47.435Z,98854.59
2022-08-22T12:47:18.020Z,98856.22
2022-08-22T12:49:57.653Z,98856.66
2022-08-22T12:52:44.314Z,98858.44
2022-08-22T12:55:17.613Z,98861.78
2022-08-22T12:57:54.058Z,98866.69
2022-08-22T13:00:26.776Z,98865.37
2022-08-22T13:02:54.708Z,98866.72
2022-08-22T13:05:23.749Z,98873.28
2022-08-22T13:07:55.293Z,98865.47
2022-08-22T13:10:33.468Z,98868.66
2022-08-22T13:13:01.168Z,98875.16
2022-08-22T13:15:45.286Z,98872.78
2022-08-22T13:18:30.050Z,98876.69
2022-08-22T13:20:59.067Z,98883.47
2022-08-22T13:23:27.920Z,98879.31
2022-08-22T13:26:01.283Z,98885.41
2022-08-22T13:28:29.322Z,98876.66
2022-08-22T13:30:57.345Z,98878.50
2022-08-22T13:33:31.675Z,98884.81
2022-08-22T13:36:01.268Z,98885.78
2022-08-22T13:38:28.892Z,98881.97
2022-08-22T13:40:56.832Z,98886.13
2022-08-22T13:43:26.436Z,98896.78
2022-08-22T13:45:55.995Z,98892.81
2022-08-22T13:48:28.498Z,98889.69
2022-08-22T13:51:04.931Z,98896.03
2022-08-22T13:53:49.876Z,98896.53
2022-08-22T13:56:30.452Z,98895.13
2022-08-22T13:58:58.625Z,98897.53
2022-08-22T14:01:28.854Z,98898.69
2022-08-22T14:03:59.438Z,98884.69
2022-08-22T14:06:35.321Z,98895.09
2022-08-22T14:09:12.001Z,98892.94
2022-08-22T14:11:51.690Z,98899.03
2022-08-22T14:14:23.619Z,98895.44
2022-08-22T14:16:54.197Z,98899.41
2022-08-22T14:19:53.134Z,98902.63
2022-08-22T14:22:32.028Z,98903.00
2022-08-22T14:25:07.248Z,98896.16
2022-08-22T14:27:34.775Z,98898.47
2022-08-22T14:30:05.528Z,98902.03
2022-08-22T14:32:43.176Z,98893.25
2022-08-22T14:35:21.673Z,98892.84
2022-08-22T14:38:17.123Z,98889.47
2022-08-22T14:40:45.090Z,98892.00
2022-08-22T14:43:33.609Z,98894.66
2022-08-22T14:46:06.329Z,98897.19
2022-08-22T14:48:39.357Z,98896.47
2022-08-22T14:51:13.100Z,98889.53
2022-08-22T14:53:40.646Z,98894.56
2022-08-22T14:56:08.740Z,98897.78
2022-08-22T14:58:49.481Z,98898.22
2022-08-22T15:01:18.805Z,98898.16
2022-08-22T15:04:21.387Z,98898.50
2022-08-22T15:06:59.321Z,98896.13
2022-08-22T15:09:34.320Z,98900.03
2022-08-22T15:12:04.044Z,98901.13
2022-08-22T15:14:35.333Z,98900.75
2022-08-22T15:17:08.684Z,98903.97
2022-08-22T15:19:41.057Z,98901.47
2022-08-22T15:22:11.346Z,98900.62
2022-08-22T15:24:46.989Z,98908.78
2022-08-22T15:27:17.254Z,98905.38
2022-08-22T15:29:49.545Z,98917.56
2022-08-22T15:32:20.295Z,98908.88
2022-08-22T15:34:52.397Z,98909.91
2022-08-22T15:37:20.150Z,98914.78
2022-08-22T15:40:07.468Z,98908.56
2022-08-22T15:42:44.572Z,98916.06
2022-08-22T15:45:41.348Z,98906.56
2022-08-22T15:48:10.738Z,98916.81
2022-08-22T15:50:39.490Z,98919.69
2022-08-22T15:53:19.739Z,98921.09
2022-08-22T15:56:05.504Z,98933.41
2022-08-22T15:58:37.178Z,98927.66
2022-08-22T16:01:14.190Z,98935.06
2022-08-22T16:03:53.583Z,98935.78
2022-08-22T16:06:42.541Z,98945.44
2022-08-22T16:09:26.425Z,98941.16
2022-08-22T16:11:53.835Z,98947.06
2022-08-22T16:14:22.726Z,98939.59
2022-08-22T16:16:50.027Z,98944.75
2022-08-22T16:19:21.992Z,98939.31
2022-08-22T16:21:53.461Z,98939.16
2022-08-22T16:24:21.733Z,98947.94
2022-08-22T16:26:49.013Z,98952.31
2022-08-22T16:29:29.289Z,98945.72
2022-08-22T16:32:01.454Z,98943.81
2022-08-22T16:34:40.431Z,98941.19
2022-08-22T16:37:21.623Z,98940.19
2022-08-22T16:39:58.594Z,98938.66
2022-08-22T16:42:27.369Z,98954.16
2022-08-22T16:45:05.430Z,98948.72
2022-08-22T16:47:36.332Z,98951.72
2022-08-22T16:50:18.421Z,98951.88
2022-08-22T16:52:52.468Z,98951.97
2022-08-22T16:55:29.338Z,98949.09
2022-08-22T16:58:06.484Z,98936.38
2022-08-22T17:00:43.383Z,98942.97
2022-08-22T17:03:22.668Z,98942.69
2022-08-22T17:06:08.933Z,98946.53
2022-08-22T17:08:39.090Z,98937.97
2022-08-22T17:11:12.464Z,98935.03
2022-08-22T17:13:51.715Z,98937.91
2022-08-22T17:16:25.394Z,98941.56
2022-08-22T17:19:09.236Z,98952.84
2022-08-22T17:21:50.621Z,98941.56
2022-08-22T17:24:32.240Z,98948.03
2022-08-22T17:27:23.650Z,98951.31
2022-08-22T17:29:52.072Z,98951.97
2022-08-22T17:32:26.273Z,98965.41
2022-08-22T17:34:59.428Z,98969.59
2022-08-22T17:37:39.525Z,98984.72
2022-08-22T17:40:07.074Z,98977.38
2022-08-22T17:42:47.936Z,98986.06
2022-08-22T17:45:33.936Z,98987.66
2022-08-22T17:48:01.688Z,98996.22
2022-08-22T17:50:35.157Z,98996.56
2022-08-22T17:53:07.828Z,98988.91
2022-08-22T17:55:53.891Z,98981.44
2022-08-22T17:58:37.860Z,98970.66
2022-08-22T18:01:16.014Z,98970.63
2022-08-22T18:03:46.416Z,98969.22
2022-08-22T18:06:31.134Z,98964.34
2022-08-22T18:09:14.888Z,98962.38
2022-08-22T18:12:02.433Z,98977.38
2022-08-22T18:14:32.146Z,98974.66
2022-08-22T18:17:00.877Z,98964.37
2022-08-22T18:19:41.156Z,98961.66
2022-08-22T18:22:11.097Z,98974.19
2022-08-22T18:24:56.508Z,98971.91
2022-08-22T18:27:34.138Z,98977.31
2022-08-22T18:30:08.171Z,98980.25
2022-08-22T18:32:35.769Z,98972.06
2022-08-22T18:35:07.901Z,98979.47
2022-08-22T18:37:38.231Z,98973.03
2022-08-22T18:40:07.220Z,98965.72
2022-08-22T18:42:49.910Z,98975.22
2022-08-22T18:45:44.494Z,98979.31
2022-08-22T18:48:20.056Z,98983.03
2022-08-22T18:50:47.874Z,98985.91
2022-08-22T18:53:47.769Z,98996.28
2022-08-22T18:56:21.861Z,98998.72
2022-08-22T18:59:05.873Z,99001.69
2022-08-22T19:01:42.323Z,99004.28
2022-08-22T19:04:24.667Z,99018.19
2022-08-22T19:06:52.915Z,99005.88
2022-08-22T19:09:32.156Z,99006.12
2022-08-22T19:12:02.994Z,99009.87
2022-08-22T19:14:49.123Z,99015.25
2022-08-22T19:17:36.610Z,99021.22
2022-08-22T19:20:25.913Z,99024.38
2022-08-22T19:23:16.602Z,99023.47
2022-08-22T19:26:02.923Z,99014.25
2022-08-22T19:28:35.922Z,99015.00
2022-08-22T19:31:22.506Z,99028.16
2022-08-22T19:33:51.246Z,99032.59
2022-08-22T19:36:29.947Z,99028.34
2022-08-22T19:39:00.651Z,99022.34
2022-08-22T19:41:50.835Z,99019.19
2022-08-22T19:44:19.034Z,99023.34
2022-08-22T19:46:47.786Z,99019.31
2022-08-22T19:49:21.561Z,99024.13
2022-08-22T19:51:58.810Z,99018.19
2022-08-22T19:54:26.271Z,99023.94
2022-08-22T19:57:03.146Z,99026.97
2022-08-22T19:59:37.941Z,99024.72
2022-08-22T20:02:09.163Z,99023.13
2022-08-22T20:04:42.405Z,99018.19
2022-08-22T20:07:25.007Z,99028.59
2022-08-22T20:09:56.518Z,99028.00
2022-08-22T20:12:29.839Z,99027.59
2022-08-22T20:14:57.440Z,99029.19
2022-08-22T20:17:24.713Z,99016.69
2022-08-22T20:22:56.746Z,99024.63
2022-08-22T20:25:42.085Z,99020.91
2022-08-22T20:28:23.548Z,99018.37
2022-08-22T20:30:50.874Z,99027.78
2022-08-22T20:33:26.048Z,99020.75
2022-08-22T20:35:55.730Z,99022.19
2022-08-22T20:38:24.504Z,99021.31
2022-08-22T20:41:14.354Z,99023.44
2022-08-22T20:43:51.499Z,99017.72
2022-08-22T20:46:38.193Z,99025.47
2022-08-22T20:49:13.567Z,99010.06
2022-08-22T20:52:10.948Z,99013.00
2022-08-22T20:54:40.914Z,99023.78
2022-08-22T20:57:18.619Z,99016.97
2022-08-22T20:59:53.853Z,99021.59
2022-08-22T21:02:23.852Z,99020.91
2022-08-22T21:04:53.102Z,99007.81
2022-08-22T21:07:24.186Z,99019.84
2022-08-22T21:10:22.321Z,99008.16
2022-08-22T21:13:09.159Z,99009.38
2022-08-22T21:15:41.446Z,99006.09
2022-08-22T21:18:09.498Z,99009.91
2022-08-22T21:20:38.105Z,99003.00
2022-08-22T21:23:19.729Z,99004.22
2022-08-22T21:25:49.303Z,99009.09
2022-08-22T21:28:26.939Z,99000.88
2022-08-22T21:30:54.464Z,99005.56
2022-08-22T21:33:24.665Z,99004.91
2022-08-22T21:35:56.095Z,98999.00
2022-08-22T21:38:23.920Z,99000.25
2022-08-22T21:40:51.446Z,98993.19
2022-08-22T21:43:29.832Z,98997.56
2022-08-22T21:45:57.368Z,99000.94
2022-08-22T21:48:33.427Z,99003.25
2022-08-22T21:51:19.437Z,98997.59
2022-08-22T21:53:46.748Z,98996.25
2022-08-22T21:56:15.618Z,98996.72
2022-08-22T21:58:43.039Z,99001.34
2022-08-22T22:01:24.947Z,99008.50
2022-08-22T22:03:54.959Z,99004.03
2022-08-22T22:06:22.266Z,99007.81
2022-08-22T22:08:49.638Z,99006.75
2022-08-22T22:11:17.217Z,99012.22
2022-08-22T22:13:44.544Z,99024.38
2022-08-22T22:16:12.392Z,99032.94
2022-08-22T22:18:40.677Z,99036.75
2022-08-22T22:21:08.084Z,99032.03
2022-08-22T22:23:35.336Z,99046.25
2022-08-22T22:26:04.038Z,99039.72
2022-08-22T22:28:33.081Z,99043.88
2022-08-22T22:31:00.401Z,99042.47
2022-08-22T22:33:29.291Z,99043.84
2022-08-22T22:35:57.576Z,99049.50
2022-08-22T22:38:24.838Z,99051.56
2022-08-22T22:40:52.643Z,99058.88
2022-08-22T22:43:20.026Z,99056.09
2022-08-22T22:45:47.244Z,99055.34
2022-08-22T22:48:17.535Z,99060.50
2022-08-22T22:50:52.457Z,99058.31
2022-08-22T22:53:21.516Z,99058.34
2022-08-22T22:56:01.124Z,99051.97
2022-08-22T22:58:29.040Z,99058.91
2022-08-22T23:00:57.689Z,99058.69
2022-08-22T23:03:26.814Z,99057.88
2022-08-22T23:05:54.315Z,99062.09
2022-08-22T23:08:21.598Z,99069.03
2022-08-22T23:10:48.911Z,99055.78
2022-08-22T23:13:16.418Z,99059.06
2022-08-22T23:15:43.713Z,99052.97
2022-08-22T23:18:10.912Z,99060.56
2022-08-22T23:20:38.431Z,99060.97
2022-08-22T23:23:05.900Z,99055.87
2022-08-22T23:25:33.149Z,99047.66
2022-08-22T23:28:00.787Z,99053.75
2022-08-22T23:30:28.255Z,99057.00
2022-08-22T23:32:56.129Z,99053.50
2022-08-22T23:35:23.736Z,99057.63
2022-08-22T23:37:51.093Z,99054.97
2022-08-22T23:40:18.505Z,99051.97
2022-08-22T23:42:46.115Z,99051.69
2022-08-22T23:45:13.457Z,99049.81
2022-08-22T23:47:40.673Z,99053.41
2022-08-22T23:50:08.481Z,99051.91
2022-08-22T23:52:35.708Z,99054.22
2022-08-22T23:55:03.090Z,99048.56
2022-08-22T23:57:30.697Z,99056.28
2022-08-22T23:59:58.690Z,99051.59
